createdAt,value
2018-09-23T00:01:39.856Z,79.94
2018-09-23T00:04:09.787Z,80.11
2018-09-23T00:06:39.482Z,79.88
2018-09-23T00:09:09.795Z,80.03
2018-09-23T00:11:39.696Z,80.25
2018-09-23T00:14:09.574Z,79.98
2018-09-23T00:16:39.496Z,80.74
2018-09-23T00:19:09.313Z,80.60
2018-09-23T00:21:39.185Z,81.02
2018-09-23T00:24:09.017Z,81.51
2018-09-23T00:26:38.833Z,81.60
2018-09-23T00:29:08.718Z,81.73
2018-09-23T00:31:38.510Z,81.30
2018-09-23T00:34:08.284Z,81.85
2018-09-23T00:36:38.134Z,81.14
2018-09-23T00:39:07.980Z,81.53
2018-09-23T00:41:37.805Z,81.34
2018-09-23T00:44:07.727Z,81.53
2018-09-23T00:46:37.545Z,80.91
2018-09-23T00:49:07.410Z,81.20
2018-09-23T00:51:37.240Z,81.19
2018-09-23T00:54:07.236Z,80.88
2018-09-23T00:56:37.644Z,80.93
2018-09-23T00:59:07.077Z,80.81
2018-09-23T01:01:36.928Z,80.84
2018-09-23T01:04:06.783Z,80.27
2018-09-23T01:06:36.636Z,80.37
2018-09-23T01:09:08.391Z,80.38
2018-09-23T01:11:38.572Z,80.19
2018-09-23T01:14:08.428Z,80.78
2018-09-23T01:16:38.230Z,80.84
2018-09-23T01:19:08.104Z,81.14
2018-09-23T01:21:37.880Z,81.56
2018-09-23T01:24:07.706Z,80.68
2018-09-23T01:26:37.583Z,80.99
2018-09-23T01:29:07.389Z,80.93
2018-09-23T01:31:37.211Z,80.83
2018-09-23T01:34:07.053Z,81.01
2018-09-23T01:36:36.952Z,80.98
2018-09-23T01:39:08.291Z,80.71
2018-09-23T01:41:38.158Z,81.04
2018-09-23T01:44:08.268Z,81.46
2018-09-23T01:46:38.052Z,80.73
2018-09-23T01:49:07.815Z,81.18
2018-09-23T01:51:37.730Z,81.05
2018-09-23T01:54:07.572Z,80.78
2018-09-23T01:56:37.420Z,81.21
2018-09-23T01:59:07.214Z,81.56
2018-09-23T02:01:37.115Z,81.02
2018-09-23T02:04:06.914Z,80.76
2018-09-23T02:06:36.719Z,81.61
2018-09-23T02:09:08.796Z,81.76
2018-09-23T02:11:38.573Z,81.55
2018-09-23T02:14:08.501Z,80.73
2018-09-23T02:16:38.308Z,80.29
2018-09-23T02:19:08.291Z,80.46
2018-09-23T02:21:38.157Z,80.92
2018-09-23T02:24:08.608Z,81.59
2018-09-23T02:26:38.454Z,81.96
2018-09-23T02:29:08.318Z,82.05
2018-09-23T02:31:38.096Z,81.85
2018-09-23T02:34:07.872Z,81.95
2018-09-23T02:36:37.660Z,82.46
2018-09-23T02:39:09.468Z,82.28
2018-09-23T02:41:39.374Z,82.06
2018-09-23T02:44:09.193Z,82.23
2018-09-23T02:46:39.043Z,82.53
2018-09-23T02:49:08.824Z,82.86
2018-09-23T02:51:38.666Z,82.53
2018-09-23T02:54:08.485Z,82.89
2018-09-23T02:56:38.360Z,82.55
2018-09-23T02:59:08.218Z,82.24
2018-09-23T03:01:38.082Z,82.45
2018-09-23T03:04:07.881Z,81.77
2018-09-23T03:06:37.752Z,82.18
2018-09-23T03:09:07.693Z,82.30
2018-09-23T03:11:37.512Z,82.49
2018-09-23T03:14:07.313Z,82.70
2018-09-23T03:16:37.160Z,82.51
2018-09-23T03:19:06.913Z,82.04
2018-09-23T03:21:36.763Z,82.01
2018-09-23T03:24:06.640Z,82.23
2018-09-23T03:26:36.468Z,82.74
2018-09-23T03:29:06.266Z,82.61
2018-09-23T03:31:36.163Z,81.87
2018-09-23T03:34:06.056Z,81.87
2018-09-23T03:36:35.932Z,81.81
2018-09-23T03:39:07.110Z,82.14
2018-09-23T03:41:36.921Z,82.22
2018-09-23T03:44:07.044Z,82.89
2018-09-23T03:46:36.872Z,83.05
2018-09-23T03:49:06.745Z,82.91
2018-09-23T03:51:36.679Z,83.07
2018-09-23T03:54:06.583Z,83.22
2018-09-23T03:56:36.501Z,82.66
2018-09-23T03:59:06.299Z,82.44
2018-09-23T04:01:36.240Z,83.12
2018-09-23T04:04:06.180Z,83.04
2018-09-23T04:06:36.063Z,83.40
2018-09-23T04:09:07.593Z,83.66
2018-09-23T04:11:37.481Z,83.57
2018-09-23T04:14:07.348Z,84.14
2018-09-23T04:16:37.284Z,84.25
2018-09-23T04:19:07.291Z,84.31
2018-09-23T04:21:37.127Z,83.95
2018-09-23T04:24:06.996Z,83.77
2018-09-23T04:26:36.852Z,83.46
2018-09-23T04:29:06.680Z,83.82
2018-09-23T04:31:36.569Z,83.61
2018-09-23T04:34:06.435Z,83.96
2018-09-23T04:36:36.276Z,84.14
2018-09-23T04:39:08.363Z,84.10
2018-09-23T04:41:38.207Z,83.90
2018-09-23T04:44:08.172Z,84.11
2018-09-23T04:46:37.986Z,83.84
2018-09-23T04:49:07.869Z,84.03
2018-09-23T04:51:38.665Z,84.09
2018-09-23T04:54:08.510Z,84.06
2018-09-23T04:56:38.316Z,83.69
2018-09-23T04:59:08.678Z,83.77
2018-09-23T05:01:38.525Z,83.91
2018-09-23T05:04:08.420Z,83.71
2018-09-23T05:06:38.286Z,83.90
2018-09-23T05:09:09.606Z,83.84
2018-09-23T05:11:39.549Z,83.98
2018-09-23T05:14:09.426Z,84.41
2018-09-23T05:16:39.305Z,84.25
2018-09-23T05:19:09.187Z,84.46
2018-09-23T05:21:39.072Z,84.39
2018-09-23T05:24:08.866Z,83.90
2018-09-23T05:26:38.743Z,82.40
2018-09-23T05:29:08.660Z,82.29
2018-09-23T05:31:38.528Z,81.98
2018-09-23T05:34:08.360Z,82.22
2018-09-23T05:36:38.196Z,81.96
2018-09-23T05:39:09.596Z,81.91
2018-09-23T05:41:39.775Z,81.32
2018-09-23T05:44:10.190Z,81.92
2018-09-23T05:46:40.388Z,81.58
2018-09-23T05:49:11.746Z,82.19
2018-09-23T05:51:42.114Z,81.70
2018-09-23T05:54:12.506Z,81.78
2018-09-23T05:56:42.234Z,81.59
2018-09-23T05:59:12.510Z,81.53
2018-09-23T06:01:43.895Z,81.26
2018-09-23T06:04:14.523Z,81.55
2018-09-23T06:06:45.542Z,81.45
2018-09-23T06:09:16.093Z,81.09
2018-09-23T06:11:46.348Z,80.01
2018-09-23T06:14:16.390Z,79.60
2018-09-23T06:16:47.220Z,79.47
2018-09-23T06:19:18.647Z,78.54
2018-09-23T06:21:49.347Z,78.44
2018-09-23T06:24:19.020Z,78.40
2018-09-23T06:26:49.902Z,78.35
2018-09-23T06:29:21.454Z,78.18
2018-09-23T06:31:51.760Z,78.32
2018-09-23T06:34:22.815Z,78.24
2018-09-23T06:36:52.707Z,77.71
2018-09-23T06:39:22.755Z,77.42
2018-09-23T06:41:53.034Z,76.84
2018-09-23T06:44:25.139Z,76.21
2018-09-23T06:46:56.206Z,76.52
2018-09-23T06:49:27.446Z,76.57
2018-09-23T06:51:57.440Z,75.59
2018-09-23T06:54:28.159Z,75.68
2018-09-23T06:56:58.916Z,75.30
2018-09-23T06:59:29.037Z,73.16
2018-09-23T07:01:59.483Z,73.30
2018-09-23T07:04:29.836Z,73.11
2018-09-23T07:07:00.167Z,72.56
2018-09-23T07:09:30.962Z,72.30
2018-09-23T07:12:01.021Z,71.24
2018-09-23T07:14:30.815Z,71.42
2018-09-23T07:17:01.575Z,71.33
2018-09-23T07:19:32.185Z,70.86
2018-09-23T07:22:02.648Z,70.27
2018-09-23T07:24:33.639Z,69.26
2018-09-23T07:27:03.948Z,69.43
2018-09-23T07:29:35.654Z,69.28
2018-09-23T07:32:06.025Z,69.52
2018-09-23T07:34:36.640Z,69.84
2018-09-23T07:37:06.943Z,68.01
2018-09-23T07:39:37.896Z,67.92
2018-09-23T07:42:08.143Z,68.13
2018-09-23T07:44:37.994Z,67.32
2018-09-23T07:47:09.148Z,66.51
2018-09-23T07:49:39.226Z,66.26
2018-09-23T07:52:09.875Z,66.35
2018-09-23T07:54:40.706Z,67.29
2018-09-23T07:57:12.005Z,67.07
2018-09-23T07:59:42.038Z,67.83
2018-09-23T08:02:13.231Z,68.05
2018-09-23T08:04:44.056Z,69.10
2018-09-23T08:07:14.922Z,69.90
2018-09-23T08:09:45.098Z,68.89
2018-09-23T08:12:15.500Z,68.96
2018-09-23T08:14:45.994Z,68.39
2018-09-23T08:17:16.401Z,67.65
2018-09-23T08:19:47.466Z,66.61
2018-09-23T08:22:17.113Z,66.30
2018-09-23T08:24:47.928Z,65.84
2018-09-23T08:27:18.661Z,66.16
2018-09-23T08:29:49.784Z,65.51
2018-09-23T08:32:20.087Z,65.62
2018-09-23T08:34:51.074Z,66.10
2018-09-23T08:37:20.921Z,65.93
2018-09-23T08:39:52.494Z,66.71
2018-09-23T08:42:23.569Z,67.31
2018-09-23T08:44:54.315Z,66.85
2018-09-23T08:47:24.282Z,67.10
2018-09-23T08:49:54.063Z,66.18
2018-09-23T08:52:24.526Z,66.57
2018-09-23T08:54:54.893Z,65.22
2018-09-23T08:57:25.303Z,64.88
2018-09-23T08:59:56.071Z,64.08
2018-09-23T09:02:27.374Z,63.90
2018-09-23T09:04:57.259Z,64.68
2018-09-23T09:07:27.983Z,65.07
2018-09-23T09:09:57.810Z,65.06
2018-09-23T09:12:27.672Z,64.77
2018-09-23T09:14:57.587Z,64.22
2018-09-23T09:17:27.387Z,64.02
2018-09-23T09:19:57.307Z,64.09
2018-09-23T09:22:27.101Z,62.73
2018-09-23T09:24:56.960Z,62.40
2018-09-23T09:27:26.737Z,62.32
2018-09-23T09:29:56.657Z,63.13
2018-09-23T09:32:26.484Z,63.89
2018-09-23T09:34:56.378Z,63.96
2018-09-23T09:37:26.186Z,62.01
2018-09-23T09:39:56.158Z,62.38
2018-09-23T09:42:26.094Z,62.03
2018-09-23T09:44:56.012Z,61.61
2018-09-23T09:47:25.947Z,60.98
2018-09-23T09:49:55.805Z,61.75
2018-09-23T09:52:25.683Z,61.23
2018-09-23T09:54:55.859Z,61.04
2018-09-23T09:57:25.733Z,60.21
2018-09-23T09:59:56.358Z,58.62
2018-09-23T10:02:26.222Z,57.39
2018-09-23T10:04:56.148Z,55.90
2018-09-23T10:07:26.160Z,55.87
2018-09-23T10:09:56.139Z,54.76
2018-09-23T10:12:26.028Z,53.97
2018-09-23T10:14:56.019Z,53.60
2018-09-23T10:17:25.893Z,53.11
2018-09-23T10:19:55.797Z,52.18
2018-09-23T10:22:25.634Z,53.17
2018-09-23T10:24:55.578Z,51.96
2018-09-23T10:27:25.487Z,51.80
2018-09-23T10:30:01.723Z,50.45
2018-09-23T10:32:31.503Z,49.00
2018-09-23T10:35:01.458Z,48.50
2018-09-23T10:37:31.233Z,49.53
2018-09-23T10:40:01.224Z,50.08
2018-09-23T10:42:31.157Z,51.15
2018-09-23T10:45:01.022Z,51.97
2018-09-23T10:47:30.923Z,52.03
2018-09-23T10:50:00.856Z,53.03
2018-09-23T10:52:30.651Z,52.65
2018-09-23T10:55:00.575Z,53.28
2018-09-23T10:57:30.441Z,51.80
2018-09-23T11:00:00.788Z,52.05
2018-09-23T11:02:30.535Z,51.62
2018-09-23T11:05:00.465Z,52.05
2018-09-23T11:07:30.444Z,50.86
2018-09-23T11:10:00.339Z,50.97
2018-09-23T11:12:30.235Z,51.90
2018-09-23T11:15:00.150Z,51.96
2018-09-23T11:17:30.003Z,51.57
2018-09-23T11:19:59.907Z,51.83
2018-09-23T11:22:29.717Z,52.21
2018-09-23T11:24:59.640Z,51.76
2018-09-23T11:27:29.461Z,52.59
2018-09-23T11:29:59.362Z,53.76
2018-09-23T11:32:29.220Z,54.18
2018-09-23T11:34:59.355Z,54.06
2018-09-23T11:37:29.230Z,54.37
2018-09-23T11:39:59.332Z,54.61
2018-09-23T11:42:29.183Z,54.84
2018-09-23T11:44:59.071Z,54.11
2018-09-23T11:47:28.959Z,54.39
2018-09-23T11:49:59.213Z,53.80
2018-09-23T11:52:29.038Z,55.40
2018-09-23T11:54:58.954Z,54.61
2018-09-23T11:57:28.850Z,53.77
2018-09-23T11:59:58.783Z,53.83
2018-09-23T12:02:28.810Z,53.88
2018-09-23T12:04:58.696Z,53.38
2018-09-23T12:07:28.657Z,53.16
2018-09-23T12:09:58.592Z,53.37
2018-09-23T12:12:28.474Z,53.24
2018-09-23T12:14:58.353Z,53.83
2018-09-23T12:17:28.212Z,53.71
2018-09-23T12:19:58.159Z,54.55
2018-09-23T12:22:28.069Z,54.71
2018-09-23T12:24:58.027Z,55.51
2018-09-23T12:27:27.906Z,55.29
2018-09-23T12:29:57.763Z,55.41
2018-09-23T12:32:27.615Z,55.33
2018-09-23T12:34:57.460Z,55.92
2018-09-23T12:37:27.363Z,54.86
2018-09-23T12:39:57.210Z,55.30
2018-09-23T12:42:27.026Z,55.23
2018-09-23T12:44:57.007Z,56.83
2018-09-23T12:47:26.890Z,57.54
2018-09-23T12:49:56.904Z,57.69
2018-09-23T12:52:26.754Z,57.66
2018-09-23T12:54:56.724Z,57.75
2018-09-23T12:57:26.635Z,57.83
2018-09-23T12:59:56.931Z,57.94
2018-09-23T13:02:26.771Z,58.00
2018-09-23T13:04:56.859Z,57.50
2018-09-23T13:07:33.464Z,57.91
2018-09-23T13:10:03.429Z,57.95
2018-09-23T13:12:33.301Z,58.81
2018-09-23T13:15:03.180Z,59.15
2018-09-23T13:17:33.099Z,58.74
2018-09-23T13:20:03.040Z,59.58
2018-09-23T13:22:32.912Z,59.26
2018-09-23T13:25:02.878Z,59.00
2018-09-23T13:27:32.795Z,59.29
2018-09-23T13:30:02.824Z,59.49
2018-09-23T13:32:32.745Z,59.44
2018-09-23T13:35:02.549Z,58.63
2018-09-23T13:37:32.502Z,58.55
2018-09-23T13:40:02.463Z,59.07
2018-09-23T13:42:32.338Z,60.43
2018-09-23T13:45:02.267Z,59.92
2018-09-23T13:47:32.239Z,60.05
2018-09-23T13:50:02.292Z,60.83
2018-09-23T13:52:32.167Z,59.78
2018-09-23T13:55:02.054Z,59.80
2018-09-23T13:57:31.996Z,60.00
2018-09-23T14:00:01.949Z,59.91
2018-09-23T14:02:31.779Z,60.45
2018-09-23T14:05:01.784Z,61.06
2018-09-23T14:07:31.619Z,60.70
2018-09-23T14:10:01.559Z,60.27
2018-09-23T14:12:31.426Z,60.05
2018-09-23T14:15:01.375Z,61.15
2018-09-23T14:17:31.395Z,62.44
2018-09-23T14:20:01.486Z,62.96
2018-09-23T14:22:31.377Z,63.71
2018-09-23T14:25:01.361Z,63.22
2018-09-23T14:27:31.345Z,63.35
2018-09-23T14:30:01.220Z,62.88
2018-09-23T14:32:31.051Z,63.00
2018-09-23T14:35:01.029Z,63.06
2018-09-23T14:37:30.982Z,62.91
2018-09-23T14:40:00.993Z,63.05
2018-09-23T14:42:30.738Z,63.97
2018-09-23T14:45:00.701Z,64.81
2018-09-23T14:47:30.579Z,64.74
2018-09-23T14:50:00.455Z,64.71
2018-09-23T14:52:30.359Z,64.56
2018-09-23T14:55:00.304Z,65.64
2018-09-23T14:57:30.242Z,65.71
2018-09-23T15:00:03.068Z,65.44
2018-09-23T15:02:30.061Z,65.62
2018-09-23T15:05:00.079Z,65.74
2018-09-23T15:07:29.983Z,65.40
2018-09-23T15:09:59.890Z,66.07
2018-09-23T15:12:29.763Z,66.07
2018-09-23T15:14:59.671Z,65.50
2018-09-23T15:17:29.587Z,65.71
2018-09-23T15:19:59.455Z,65.67
2018-09-23T15:22:29.272Z,65.64
2018-09-23T15:24:59.168Z,65.76
2018-09-23T15:27:29.634Z,65.77
2018-09-23T15:29:59.515Z,65.67
2018-09-23T15:32:29.367Z,66.08
2018-09-23T15:34:59.282Z,66.42
2018-09-23T15:37:29.218Z,66.08
2018-09-23T15:39:59.163Z,66.46
2018-09-23T15:42:29.090Z,65.91
2018-09-23T15:44:59.047Z,66.12
2018-09-23T15:47:29.042Z,66.56
2018-09-23T15:49:58.906Z,66.42
2018-09-23T15:52:28.754Z,66.70
2018-09-23T15:54:58.668Z,67.27
2018-09-23T15:57:28.592Z,67.43
2018-09-23T15:59:58.549Z,66.81
2018-09-23T16:02:28.282Z,67.14
2018-09-23T16:04:58.282Z,68.04
2018-09-23T16:07:28.318Z,67.73
2018-09-23T16:09:58.203Z,68.67
2018-09-23T16:12:28.044Z,68.59
2018-09-23T16:14:58.399Z,69.63
2018-09-23T16:17:28.446Z,69.35
2018-09-23T16:19:58.368Z,69.76
2018-09-23T16:22:28.354Z,70.48
2018-09-23T16:24:58.428Z,71.62
2018-09-23T16:27:28.391Z,72.06
2018-09-23T16:29:58.506Z,72.48
2018-09-23T16:32:28.407Z,72.33
2018-09-23T16:34:58.494Z,72.61
2018-09-23T16:37:28.540Z,73.47
2018-09-23T16:39:58.507Z,73.47
2018-09-23T16:42:28.428Z,74.47
2018-09-23T16:44:58.418Z,75.21
2018-09-23T16:47:28.484Z,75.66
2018-09-23T16:49:58.478Z,76.20
2018-09-23T16:52:28.722Z,76.43
2018-09-23T16:54:58.798Z,76.88
2018-09-23T16:57:28.686Z,77.08
2018-09-23T16:59:59.647Z,76.76
2018-09-23T17:02:29.545Z,77.04
2018-09-23T17:04:59.587Z,76.78
2018-09-23T17:07:29.625Z,76.81
2018-09-23T17:09:59.644Z,77.07
2018-09-23T17:12:29.639Z,77.11
2018-09-23T17:14:59.572Z,76.92
2018-09-23T17:17:29.366Z,76.85
2018-09-23T17:19:59.349Z,77.24
2018-09-23T17:22:29.116Z,77.18
2018-09-23T17:24:58.980Z,77.42
2018-09-23T17:27:29.016Z,77.48
2018-09-23T17:29:58.940Z,77.49
2018-09-23T17:32:28.896Z,77.96
2018-09-23T17:34:58.966Z,78.61
2018-09-23T17:37:28.820Z,78.37
2018-09-23T17:39:58.664Z,78.97
2018-09-23T17:42:28.526Z,79.54
2018-09-23T17:44:58.441Z,79.77
2018-09-23T17:47:28.326Z,80.07
2018-09-23T17:49:59.746Z,80.18
2018-09-23T17:52:32.519Z,79.94
2018-09-23T17:55:03.557Z,80.94
2018-09-23T17:57:33.971Z,81.06
2018-09-23T18:00:04.462Z,81.11
2018-09-23T18:02:34.664Z,80.98
2018-09-23T18:05:05.425Z,80.53
2018-09-23T18:07:36.396Z,80.44
2018-09-23T18:10:08.435Z,80.43
2018-09-23T18:12:40.222Z,80.95
2018-09-23T18:15:11.093Z,81.17
2018-09-23T18:17:42.850Z,81.47
2018-09-23T18:20:13.525Z,81.56
2018-09-23T18:22:44.072Z,81.08
2018-09-23T18:25:15.319Z,81.40
2018-09-23T18:27:46.230Z,81.44
2018-09-23T18:30:16.404Z,81.92
2018-09-23T18:32:47.034Z,81.61
2018-09-23T18:35:17.871Z,81.13
2018-09-23T18:37:48.518Z,81.64
2018-09-23T18:40:19.924Z,81.46
2018-09-23T18:42:50.107Z,81.42
2018-09-23T18:45:21.233Z,82.48
2018-09-23T18:47:53.135Z,82.31
2018-09-23T18:50:27.016Z,82.35
2018-09-23T18:53:02.887Z,82.02
2018-09-23T18:55:52.470Z,82.13
2018-09-23T18:58:26.026Z,82.38
2018-09-23T19:00:56.772Z,82.34
2018-09-23T19:03:28.337Z,81.96
2018-09-23T19:05:58.313Z,82.00
2018-09-23T19:08:29.808Z,82.25
2018-09-23T19:11:00.325Z,81.78
2018-09-23T19:13:35.753Z,82.14
2018-09-23T19:16:10.731Z,81.67
2018-09-23T19:18:44.252Z,82.34
2018-09-23T19:21:15.377Z,82.17
2018-09-23T19:23:46.137Z,82.34
2018-09-23T19:26:16.204Z,82.37
2018-09-23T19:28:46.467Z,82.29
2018-09-23T19:31:17.424Z,82.77
2018-09-23T19:33:47.960Z,82.79
2018-09-23T19:36:17.903Z,82.62
2018-09-23T19:38:48.189Z,82.98
2018-09-23T19:41:18.451Z,82.81
2018-09-23T19:43:49.255Z,82.78
2018-09-23T19:46:20.305Z,83.23
2018-09-23T19:48:50.997Z,83.37
2018-09-23T19:51:21.153Z,83.25
2018-09-23T19:53:51.623Z,83.11
2018-09-23T19:56:21.687Z,83.48
2018-09-23T19:58:52.246Z,82.88
2018-09-23T20:01:23.467Z,83.29
2018-09-23T20:03:55.927Z,82.68
2018-09-23T20:06:30.068Z,82.59
2018-09-23T20:09:01.062Z,82.49
2018-09-23T20:11:32.959Z,82.53
2018-09-23T20:14:02.985Z,83.00
2018-09-23T20:16:32.890Z,82.57
2018-09-23T20:19:03.766Z,82.58
2018-09-23T20:21:35.409Z,82.46
2018-09-23T20:24:07.381Z,82.32
2018-09-23T20:26:37.580Z,82.53
2018-09-23T20:29:08.012Z,83.04
2018-09-23T20:31:38.050Z,82.75
2018-09-23T20:34:08.155Z,82.94
2018-09-23T20:36:38.173Z,83.51
2018-09-23T20:39:09.650Z,83.04
2018-09-23T20:41:39.570Z,82.58
2018-09-23T20:44:09.507Z,82.65
2018-09-23T20:46:39.474Z,82.70
2018-09-23T20:49:09.400Z,82.77
2018-09-23T20:51:39.695Z,83.22
2018-09-23T20:54:09.695Z,83.28
2018-09-23T20:56:39.738Z,83.64
2018-09-23T20:59:10.035Z,83.60
2018-09-23T21:01:40.081Z,83.58
2018-09-23T21:04:10.111Z,83.86
2018-09-23T21:06:39.875Z,83.91
2018-09-23T21:09:10.904Z,84.20
2018-09-23T21:11:41.788Z,83.38
2018-09-23T21:14:11.915Z,83.49
2018-09-23T21:16:41.824Z,83.80
2018-09-23T21:19:11.695Z,83.40
2018-09-23T21:21:41.605Z,83.37
2018-09-23T21:24:12.415Z,82.94
2018-09-23T21:26:42.374Z,83.25
2018-09-23T21:29:12.340Z,83.27
2018-09-23T21:31:42.444Z,83.15
2018-09-23T21:34:12.682Z,83.34
2018-09-23T21:36:42.733Z,83.08
2018-09-23T21:39:12.864Z,83.47
2018-09-23T21:41:42.976Z,84.12
2018-09-23T21:44:12.894Z,83.91
2018-09-23T21:46:42.908Z,84.30
2018-09-23T21:49:12.974Z,84.21
2018-09-23T21:51:43.124Z,83.97
2018-09-23T21:54:13.043Z,84.17
2018-09-23T21:56:42.959Z,83.89
2018-09-23T21:59:13.302Z,84.25
2018-09-23T22:01:43.327Z,84.45
2018-09-23T22:04:13.172Z,85.31
2018-09-23T22:06:43.160Z,85.94
2018-09-23T22:09:13.714Z,85.92
2018-09-23T22:11:43.778Z,86.42
2018-09-23T22:14:13.635Z,86.57
2018-09-23T22:16:43.504Z,85.83
2018-09-23T22:19:13.566Z,85.65
2018-09-23T22:21:43.547Z,85.66
2018-09-23T22:24:13.748Z,84.73
2018-09-23T22:26:43.795Z,84.37
2018-09-23T22:29:13.992Z,84.32
2018-09-23T22:31:44.011Z,84.09
2018-09-23T22:34:13.815Z,84.47
2018-09-23T22:36:43.655Z,83.11
2018-09-23T22:39:13.585Z,82.71
2018-09-23T22:41:43.622Z,82.79
2018-09-23T22:44:13.659Z,82.58
2018-09-23T22:46:43.462Z,81.79
2018-09-23T22:49:13.435Z,80.91
2018-09-23T22:51:43.528Z,79.89
2018-09-23T22:54:13.414Z,78.67
2018-09-23T22:56:43.360Z,78.00
2018-09-23T22:59:13.384Z,77.79
2018-09-23T23:01:43.355Z,77.10
2018-09-23T23:04:13.186Z,69.73
2018-09-23T23:06:43.090Z,68.87
2018-09-23T23:09:12.959Z,64.55
2018-09-23T23:11:42.971Z,62.55
2018-09-23T23:14:12.869Z,61.69
2018-09-23T23:16:42.793Z,62.84
2018-09-23T23:19:12.673Z,62.44
2018-09-23T23:21:42.555Z,64.57
2018-09-23T23:24:12.313Z,64.53
2018-09-23T23:26:42.734Z,63.75
2018-09-23T23:29:12.744Z,65.23
2018-09-23T23:31:42.606Z,65.40
2018-09-23T23:34:12.888Z,66.01
2018-09-23T23:36:42.842Z,66.67
2018-09-23T23:39:12.742Z,66.11
2018-09-23T23:41:42.688Z,67.42
2018-09-23T23:44:12.662Z,66.77
2018-09-23T23:46:42.831Z,67.13
2018-09-23T23:49:12.700Z,70.53
2018-09-23T23:51:42.610Z,69.61
2018-09-23T23:54:12.434Z,72.28
2018-09-23T23:56:42.466Z,71.93
2018-09-23T23:59:12.324Z,71.87
